SILO ALERT LOG
| Silo ID | Alert Type | Alert Message | Silo Type | Points | Depth (mm) | Strength | Temperature (°C) | Humidity (%) | Height (mm) | Volume (㎥) | Weight (t) | Flag | Time |
|---|---|---|---|---|---|---|---|---|---|---|---|---|---|
| DJDJD04 | Humidity | 습도센서 측정값이 80% 초과 | 평 | 67 | 3244 | 5816 | -3275.8 | 99.9 | 4255 | 515.563 | 325.939 | 0 | 2026-05-03 03:25:06.000 |
| DJDJD04 | Temperature | 온도센서 상태 이상 | 평 | 67 | 3244 | 5816 | -3275.8 | 99.9 | 4255 | 515.563 | 325.939 | 0 | 2026-05-03 03:25:06.000 |
| DJSAD16 | Humidity | 습도센서 측정값이 80% 초과 | 평 | 57 | 2300 | 6489 | 16.1 | 80.1 | 4340 | 432.172 | 273.219 | 0 | 2026-05-03 03:23:38.000 |
| DJHNR11 | Humidity | 습도센서 측정값이 80% 초과 | 호퍼 | 60 | 3590 | 1171 | 12.3 | 80.4 | 6910 | 113.073 | 71.485 | 0 | 2026-05-03 02:45:11.000 |
| DJHNR11 | Humidity | 습도센서 측정값이 80% 초과 | 호퍼 | 60 | 3590 | 1171 | 12.3 | 80.4 | 6910 | 113.073 | 71.485 | 0 | 2026-05-03 02:45:11.000 |
| DJHNR11 | Humidity | 습도센서 측정값이 80% 초과 | 호퍼 | 60 | 3590 | 1171 | 12.3 | 80.4 | 6910 | 113.073 | 71.485 | 0 | 2026-05-03 02:45:11.000 |
| DJHNR11 | Humidity | 습도센서 측정값이 80% 초과 | 호퍼 | 60 | 3590 | 1171 | 12.3 | 80.4 | 6910 | 113.073 | 71.485 | 0 | 2026-05-03 02:45:11.000 |
| DJDJD04 | Humidity | 습도센서 측정값이 80% 초과 | 평 | 66 | 3059 | 5836 | -3275.8 | 99.9 | 4440 | 537.934 | 340.082 | 0 | 2026-05-03 00:25:02.000 |
| DJDJD04 | Temperature | 온도센서 상태 이상 | 평 | 66 | 3059 | 5836 | -3275.8 | 99.9 | 4440 | 537.934 | 340.082 | 0 | 2026-05-03 00:25:02.000 |
| DJDJD04 | Humidity | 습도센서 측정값이 80% 초과 | 평 | 68 | 2806 | 5849 | -3275.8 | 99.9 | 4693 | 568.647 | 359.499 | 0 | 2026-05-02 23:25:21.000 |
| DJDJD04 | Temperature | 온도센서 상태 이상 | 평 | 68 | 2806 | 5849 | -3275.8 | 99.9 | 4693 | 568.647 | 359.499 | 0 | 2026-05-02 23:25:21.000 |
| DJDJD04 | Humidity | 습도센서 측정값이 80% 초과 | 평 | 67 | 2863 | 5848 | -3275.8 | 99.9 | 4636 | 561.669 | 355.087 | 0 | 2026-05-02 22:25:17.000 |
| DJDJD04 | Temperature | 온도센서 상태 이상 | 평 | 67 | 2863 | 5848 | -3275.8 | 99.9 | 4636 | 561.669 | 355.087 | 0 | 2026-05-02 22:25:17.000 |
| DJHNR11 | Humidity | 습도센서 측정값이 80% 초과 | 호퍼 | 60 | 3510 | 1173 | 12.3 | 80.4 | 6990 | 114.798 | 72.576 | 0 | 2026-05-02 22:23:47.000 |
| DJDJD04 | Humidity | 습도센서 측정값이 80% 초과 | 평 | 67 | 2812 | 5808 | -3275.8 | 99.9 | 4687 | 567.957 | 359.063 | 0 | 2026-05-02 21:25:20.000 |
| DJDJD04 | Temperature | 온도센서 상태 이상 | 평 | 67 | 2812 | 5808 | -3275.8 | 99.9 | 4687 | 567.957 | 359.063 | 0 | 2026-05-02 21:25:20.000 |
| DJDJD04 | Temperature | 온도센서 상태 이상 | 평 | 66 | 2843 | 5820 | -3275.8 | 99.9 | 4656 | 564.185 | 356.678 | 0 | 2026-05-02 20:25:17.000 |
| DJDJD04 | Humidity | 습도센서 측정값이 80% 초과 | 평 | 66 | 2843 | 5820 | -3275.8 | 99.9 | 4656 | 564.185 | 356.678 | 0 | 2026-05-02 20:25:17.000 |
| DJDJD04 | Temperature | 온도센서 상태 이상 | 평 | 67 | 3158 | 5806 | -3275.8 | 99.9 | 4341 | 525.983 | 332.526 | 0 | 2026-05-02 19:25:03.000 |
| DJDJD04 | Humidity | 습도센서 측정값이 80% 초과 | 평 | 67 | 3158 | 5806 | -3275.8 | 99.9 | 4341 | 525.983 | 332.526 | 0 | 2026-05-02 19:25:03.000 |
첫 페이지 1 [2] [3] [4] [5] [마지막 페이지]